sensor_id;sensor_type;location;lat;lon;timestamp;P1;durP1;ratioP1;P2;durP2;ratioP2
52590;SDS011;38483;42.620;25.394;2022-12-18T00:01:16;60.03;;;36.10;;
52590;SDS011;38483;42.620;25.394;2022-12-18T00:03:53;70.50;;;40.83;;
52590;SDS011;38483;42.620;25.394;2022-12-18T00:06:23;73.17;;;39.87;;
52590;SDS011;38483;42.620;25.394;2022-12-18T00:08:51;65.20;;;39.67;;
52590;SDS011;38483;42.620;25.394;2022-12-18T00:11:20;73.10;;;42.70;;
52590;SDS011;38483;42.620;25.394;2022-12-18T00:13:48;64.60;;;41.63;;
52590;SDS011;38483;42.620;25.394;2022-12-18T00:16:19;53.97;;;36.20;;
52590;SDS011;38483;42.620;25.394;2022-12-18T00:18:48;54.00;;;34.10;;
52590;SDS011;38483;42.620;25.394;2022-12-18T00:21:16;54.67;;;31.97;;
52590;SDS011;38483;42.620;25.394;2022-12-18T00:23:45;42.17;;;29.23;;
52590;SDS011;38483;42.620;25.394;2022-12-18T00:26:14;41.27;;;27.87;;
52590;SDS011;38483;42.620;25.394;2022-12-18T00:28:46;40.53;;;27.27;;
52590;SDS011;38483;42.620;25.394;2022-12-18T00:31:14;38.10;;;25.87;;
52590;SDS011;38483;42.620;25.394;2022-12-18T00:33:46;37.80;;;24.90;;
52590;SDS011;38483;42.620;25.394;2022-12-18T00:36:18;33.30;;;23.13;;
52590;SDS011;38483;42.620;25.394;2022-12-18T00:38:47;37.60;;;25.17;;
52590;SDS011;38483;42.620;25.394;2022-12-18T00:41:17;35.53;;;24.43;;
52590;SDS011;38483;42.620;25.394;2022-12-18T00:44:05;35.00;;;21.70;;
52590;SDS011;38483;42.620;25.394;2022-12-18T00:46:33;32.97;;;22.30;;
52590;SDS011;38483;42.620;25.394;2022-12-18T00:49:00;32.23;;;22.87;;
52590;SDS011;38483;42.620;25.394;2022-12-18T00:51:28;33.07;;;23.63;;
52590;SDS011;38483;42.620;25.394;2022-12-18T00:53:55;32.23;;;23.63;;
52590;SDS011;38483;42.620;25.394;2022-12-18T00:56:22;30.40;;;22.23;;
52590;SDS011;38483;42.620;25.394;2022-12-18T00:58:49;34.93;;;21.80;;
52590;SDS011;38483;42.620;25.394;2022-12-18T01:01:16;36.30;;;24.00;;
52590;SDS011;38483;42.620;25.394;2022-12-18T01:03:44;27.33;;;19.60;;
52590;SDS011;38483;42.620;25.394;2022-12-18T01:06:14;30.20;;;20.80;;
52590;SDS011;38483;42.620;25.394;2022-12-18T01:08:42;26.97;;;17.93;;
52590;SDS011;38483;42.620;25.394;2022-12-18T01:11:15;32.10;;;19.30;;
52590;SDS011;38483;42.620;25.394;2022-12-18T01:13:44;28.67;;;18.13;;
52590;SDS011;38483;42.620;25.394;2022-12-18T01:16:11;26.97;;;18.47;;
52590;SDS011;38483;42.620;25.394;2022-12-18T01:18:39;26.83;;;17.07;;
52590;SDS011;38483;42.620;25.394;2022-12-18T01:21:07;22.77;;;16.57;;
52590;SDS011;38483;42.620;25.394;2022-12-18T01:23:36;24.10;;;17.77;;
52590;SDS011;38483;42.620;25.394;2022-12-18T01:26:05;28.07;;;19.07;;
52590;SDS011;38483;42.620;25.394;2022-12-18T01:28:37;26.77;;;19.83;;
52590;SDS011;38483;42.620;25.394;2022-12-18T01:31:25;27.50;;;19.57;;
52590;SDS011;38483;42.620;25.394;2022-12-18T01:33:53;28.13;;;20.80;;
52590;SDS011;38483;42.620;25.394;2022-12-18T01:36:23;27.57;;;19.50;;
52590;SDS011;38483;42.620;25.394;2022-12-18T01:38:51;27.43;;;18.83;;
52590;SDS011;38483;42.620;25.394;2022-12-18T01:41:20;28.13;;;20.20;;
52590;SDS011;38483;42.620;25.394;2022-12-18T01:43:55;25.27;;;18.30;;
52590;SDS011;38483;42.620;25.394;2022-12-18T01:46:24;27.57;;;18.80;;
52590;SDS011;38483;42.620;25.394;2022-12-18T01:48:56;27.90;;;19.70;;
52590;SDS011;38483;42.620;25.394;2022-12-18T01:51:27;23.10;;;18.13;;
52590;SDS011;38483;42.620;25.394;2022-12-18T01:53:56;25.67;;;17.63;;
52590;SDS011;38483;42.620;25.394;2022-12-18T01:56:24;24.20;;;17.57;;
52590;SDS011;38483;42.620;25.394;2022-12-18T01:59:09;21.87;;;17.43;;
52590;SDS011;38483;42.620;25.394;2022-12-18T02:01:38;25.30;;;18.83;;
52590;SDS011;38483;42.620;25.394;2022-12-18T02:09:44;24.50;;;17.50;;
52590;SDS011;38483;42.620;25.394;2022-12-18T02:12:21;26.57;;;18.93;;
52590;SDS011;38483;42.620;25.394;2022-12-18T02:15:00;25.70;;;18.97;;
52590;SDS011;38483;42.620;25.394;2022-12-18T02:18:16;25.43;;;18.53;;
52590;SDS011;38483;42.620;25.394;2022-12-18T02:20:36;28.67;;;19.77;;
52590;SDS011;38483;42.620;25.394;2022-12-18T02:26:02;25.03;;;19.73;;
52590;SDS011;38483;42.620;25.394;2022-12-18T02:28:40;28.50;;;20.50;;
52590;SDS011;38483;42.620;25.394;2022-12-18T02:31:12;27.70;;;19.57;;
52590;SDS011;38483;42.620;25.394;2022-12-18T02:33:43;26.47;;;18.87;;
52590;SDS011;38483;42.620;25.394;2022-12-18T02:36:12;28.90;;;19.30;;
52590;SDS011;38483;42.620;25.394;2022-12-18T02:38:42;25.27;;;19.10;;
52590;SDS011;38483;42.620;25.394;2022-12-18T02:42:04;28.20;;;19.10;;
52590;SDS011;38483;42.620;25.394;2022-12-18T02:45:26;23.93;;;17.67;;
52590;SDS011;38483;42.620;25.394;2022-12-18T02:47:53;27.97;;;18.97;;
52590;SDS011;38483;42.620;25.394;2022-12-18T02:50:22;25.80;;;18.87;;
52590;SDS011;38483;42.620;25.394;2022-12-18T02:53:05;28.63;;;19.67;;
52590;SDS011;38483;42.620;25.394;2022-12-18T03:03:46;26.30;;;18.30;;
52590;SDS011;38483;42.620;25.394;2022-12-18T03:06:32;27.60;;;19.53;;
52590;SDS011;38483;42.620;25.394;2022-12-18T03:09:07;30.90;;;17.33;;
52590;SDS011;38483;42.620;25.394;2022-12-18T03:11:38;25.13;;;17.90;;
52590;SDS011;38483;42.620;25.394;2022-12-18T03:14:27;26.23;;;18.90;;
52590;SDS011;38483;42.620;25.394;2022-12-18T03:16:59;40.63;;;19.50;;
52590;SDS011;38483;42.620;25.394;2022-12-18T03:19:28;26.63;;;19.70;;
52590;SDS011;38483;42.620;25.394;2022-12-18T03:22:00;33.93;;;22.20;;
52590;SDS011;38483;42.620;25.394;2022-12-18T03:24:38;27.10;;;20.00;;
52590;SDS011;38483;42.620;25.394;2022-12-18T03:27:09;27.23;;;19.43;;
52590;SDS011;38483;42.620;25.394;2022-12-18T03:29:48;25.80;;;17.80;;
52590;SDS011;38483;42.620;25.394;2022-12-18T03:32:26;22.37;;;15.93;;
52590;SDS011;38483;42.620;25.394;2022-12-18T03:34:59;27.10;;;17.17;;
52590;SDS011;38483;42.620;25.394;2022-12-18T03:37:34;24.97;;;18.13;;
52590;SDS011;38483;42.620;25.394;2022-12-18T03:40:02;28.07;;;18.43;;
52590;SDS011;38483;42.620;25.394;2022-12-18T03:42:56;23.60;;;16.40;;
52590;SDS011;38483;42.620;25.394;2022-12-18T03:45:45;20.23;;;14.70;;
52590;SDS011;38483;42.620;25.394;2022-12-18T03:48:24;22.40;;;15.37;;
52590;SDS011;38483;42.620;25.394;2022-12-18T03:51:17;21.07;;;15.33;;
52590;SDS011;38483;42.620;25.394;2022-12-18T03:53:58;24.40;;;17.00;;
52590;SDS011;38483;42.620;25.394;2022-12-18T03:56:33;20.07;;;15.33;;
52590;SDS011;38483;42.620;25.394;2022-12-18T03:59:06;22.53;;;15.53;;
52590;SDS011;38483;42.620;25.394;2022-12-18T04:01:38;22.37;;;15.80;;
52590;SDS011;38483;42.620;25.394;2022-12-18T04:04:11;21.83;;;14.93;;
52590;SDS011;38483;42.620;25.394;2022-12-18T04:06:42;23.53;;;16.17;;
52590;SDS011;38483;42.620;25.394;2022-12-18T04:09:12;21.13;;;15.70;;
52590;SDS011;38483;42.620;25.394;2022-12-18T04:11:43;21.80;;;15.47;;
52590;SDS011;38483;42.620;25.394;2022-12-18T04:14:12;22.33;;;15.63;;
52590;SDS011;38483;42.620;25.394;2022-12-18T04:16:43;22.00;;;16.03;;
52590;SDS011;38483;42.620;25.394;2022-12-18T04:19:14;24.33;;;16.87;;
52590;SDS011;38483;42.620;25.394;2022-12-18T04:21:43;21.33;;;14.90;;
52590;SDS011;38483;42.620;25.394;2022-12-18T04:24:12;21.33;;;14.47;;
52590;SDS011;38483;42.620;25.394;2022-12-18T04:26:45;25.03;;;16.53;;
52590;SDS011;38483;42.620;25.394;2022-12-18T04:29:17;21.90;;;16.10;;
52590;SDS011;38483;42.620;25.394;2022-12-18T04:31:44;22.53;;;16.13;;
52590;SDS011;38483;42.620;25.394;2022-12-18T04:34:11;22.70;;;17.20;;
52590;SDS011;38483;42.620;25.394;2022-12-18T04:36:46;25.93;;;18.07;;
52590;SDS011;38483;42.620;25.394;2022-12-18T04:39:14;25.93;;;19.10;;
52590;SDS011;38483;42.620;25.394;2022-12-18T04:41:48;29.93;;;19.70;;
52590;SDS011;38483;42.620;25.394;2022-12-18T04:44:15;31.30;;;20.67;;
52590;SDS011;38483;42.620;25.394;2022-12-18T04:46:42;26.27;;;19.30;;
52590;SDS011;38483;42.620;25.394;2022-12-18T04:49:09;25.50;;;18.20;;
52590;SDS011;38483;42.620;25.394;2022-12-18T04:51:39;23.13;;;16.67;;
52590;SDS011;38483;42.620;25.394;2022-12-18T04:54:06;26.03;;;18.20;;
52590;SDS011;38483;42.620;25.394;2022-12-18T04:56:33;24.97;;;17.90;;
52590;SDS011;38483;42.620;25.394;2022-12-18T04:59:00;24.17;;;16.97;;
52590;SDS011;38483;42.620;25.394;2022-12-18T05:01:27;24.90;;;17.10;;
52590;SDS011;38483;42.620;25.394;2022-12-18T05:04:00;28.70;;;18.67;;
52590;SDS011;38483;42.620;25.394;2022-12-18T05:06:28;27.20;;;19.13;;
52590;SDS011;38483;42.620;25.394;2022-12-18T05:08:55;32.23;;;19.20;;
52590;SDS011;38483;42.620;25.394;2022-12-18T05:11:22;29.27;;;20.03;;
52590;SDS011;38483;42.620;25.394;2022-12-18T05:13:48;26.90;;;17.73;;
52590;SDS011;38483;42.620;25.394;2022-12-18T05:16:15;26.83;;;19.00;;
52590;SDS011;38483;42.620;25.394;2022-12-18T05:18:42;25.70;;;18.37;;
52590;SDS011;38483;42.620;25.394;2022-12-18T05:21:09;27.07;;;17.50;;
52590;SDS011;38483;42.620;25.394;2022-12-18T05:23:36;22.47;;;15.73;;
52590;SDS011;38483;42.620;25.394;2022-12-18T05:26:05;38.13;;;24.07;;
52590;SDS011;38483;42.620;25.394;2022-12-18T05:28:34;30.90;;;17.47;;
52590;SDS011;38483;42.620;25.394;2022-12-18T05:31:03;27.83;;;17.87;;
52590;SDS011;38483;42.620;25.394;2022-12-18T05:33:31;25.77;;;16.43;;
52590;SDS011;38483;42.620;25.394;2022-12-18T05:36:01;20.87;;;13.93;;
52590;SDS011;38483;42.620;25.394;2022-12-18T05:38:30;19.23;;;14.47;;
52590;SDS011;38483;42.620;25.394;2022-12-18T05:40:57;15.77;;;11.93;;
52590;SDS011;38483;42.620;25.394;2022-12-18T05:43:25;19.53;;;13.53;;
52590;SDS011;38483;42.620;25.394;2022-12-18T05:45:53;22.23;;;14.60;;
52590;SDS011;38483;42.620;25.394;2022-12-18T05:48:20;24.80;;;16.70;;
52590;SDS011;38483;42.620;25.394;2022-12-18T05:50:48;25.33;;;16.10;;
52590;SDS011;38483;42.620;25.394;2022-12-18T05:53:16;20.47;;;13.90;;
52590;SDS011;38483;42.620;25.394;2022-12-18T05:55:45;16.33;;;11.70;;
52590;SDS011;38483;42.620;25.394;2022-12-18T05:58:13;17.80;;;11.70;;
52590;SDS011;38483;42.620;25.394;2022-12-18T06:00:45;19.10;;;13.27;;
52590;SDS011;38483;42.620;25.394;2022-12-18T06:03:12;26.63;;;14.17;;
52590;SDS011;38483;42.620;25.394;2022-12-18T06:05:41;20.23;;;14.23;;
52590;SDS011;38483;42.620;25.394;2022-12-18T06:08:10;18.37;;;13.00;;
52590;SDS011;38483;42.620;25.394;2022-12-18T06:10:37;19.33;;;13.57;;
52590;SDS011;38483;42.620;25.394;2022-12-18T06:13:05;19.30;;;14.43;;
52590;SDS011;38483;42.620;25.394;2022-12-18T06:15:35;22.83;;;15.93;;
52590;SDS011;38483;42.620;25.394;2022-12-18T06:18:03;20.03;;;15.23;;
52590;SDS011;38483;42.620;25.394;2022-12-18T06:20:30;22.10;;;17.17;;
52590;SDS011;38483;42.620;25.394;2022-12-18T06:22:59;26.10;;;18.33;;
52590;SDS011;38483;42.620;25.394;2022-12-18T06:25:26;24.20;;;18.03;;
52590;SDS011;38483;42.620;25.394;2022-12-18T06:27:53;28.40;;;18.83;;
52590;SDS011;38483;42.620;25.394;2022-12-18T06:30:20;31.00;;;19.20;;
52590;SDS011;38483;42.620;25.394;2022-12-18T06:32:47;26.63;;;19.17;;
52590;SDS011;38483;42.620;25.394;2022-12-18T06:35:21;24.00;;;18.20;;
52590;SDS011;38483;42.620;25.394;2022-12-18T06:37:49;23.17;;;15.73;;
52590;SDS011;38483;42.620;25.394;2022-12-18T06:40:16;26.60;;;16.97;;
52590;SDS011;38483;42.620;25.394;2022-12-18T06:42:43;27.63;;;18.60;;
52590;SDS011;38483;42.620;25.394;2022-12-18T06:45:10;24.50;;;15.77;;
52590;SDS011;38483;42.620;25.394;2022-12-18T06:47:38;26.50;;;17.33;;
52590;SDS011;38483;42.620;25.394;2022-12-18T06:50:04;24.47;;;16.60;;
52590;SDS011;38483;42.620;25.394;2022-12-18T06:52:32;17.63;;;12.57;;
52590;SDS011;38483;42.620;25.394;2022-12-18T06:55:00;11.17;;;8.30;;
52590;SDS011;38483;42.620;25.394;2022-12-18T06:57:27;13.43;;;10.40;;
52590;SDS011;38483;42.620;25.394;2022-12-18T06:59:55;19.67;;;12.93;;
52590;SDS011;38483;42.620;25.394;2022-12-18T07:02:21;15.13;;;11.17;;
52590;SDS011;38483;42.620;25.394;2022-12-18T07:04:48;10.50;;;8.17;;
52590;SDS011;38483;42.620;25.394;2022-12-18T07:07:15;12.87;;;9.37;;
52590;SDS011;38483;42.620;25.394;2022-12-18T07:09:42;11.80;;;9.07;;
52590;SDS011;38483;42.620;25.394;2022-12-18T07:12:09;11.03;;;8.40;;
52590;SDS011;38483;42.620;25.394;2022-12-18T07:14:36;12.10;;;8.70;;
52590;SDS011;38483;42.620;25.394;2022-12-18T07:17:03;12.23;;;9.37;;
52590;SDS011;38483;42.620;25.394;2022-12-18T07:19:31;13.47;;;9.67;;
52590;SDS011;38483;42.620;25.394;2022-12-18T07:22:00;15.93;;;10.23;;
52590;SDS011;38483;42.620;25.394;2022-12-18T07:24:39;17.73;;;10.97;;
52590;SDS011;38483;42.620;25.394;2022-12-18T07:27:07;13.87;;;10.03;;
52590;SDS011;38483;42.620;25.394;2022-12-18T07:29:35;14.40;;;9.90;;
52590;SDS011;38483;42.620;25.394;2022-12-18T07:32:03;15.13;;;10.27;;
52590;SDS011;38483;42.620;25.394;2022-12-18T07:34:30;16.90;;;10.37;;
52590;SDS011;38483;42.620;25.394;2022-12-18T07:36:57;15.50;;;10.23;;
52590;SDS011;38483;42.620;25.394;2022-12-18T07:39:24;20.67;;;12.60;;
52590;SDS011;38483;42.620;25.394;2022-12-18T07:41:51;24.20;;;16.37;;
52590;SDS011;38483;42.620;25.394;2022-12-18T07:44:39;26.37;;;18.67;;
52590;SDS011;38483;42.620;25.394;2022-12-18T07:47:05;27.10;;;18.77;;
52590;SDS011;38483;42.620;25.394;2022-12-18T07:49:37;25.07;;;16.07;;
52590;SDS011;38483;42.620;25.394;2022-12-18T07:52:06;19.70;;;12.23;;
52590;SDS011;38483;42.620;25.394;2022-12-18T07:54:34;20.07;;;12.47;;
52590;SDS011;38483;42.620;25.394;2022-12-18T07:57:01;15.67;;;10.27;;
52590;SDS011;38483;42.620;25.394;2022-12-18T07:59:28;17.63;;;12.27;;
52590;SDS011;38483;42.620;25.394;2022-12-18T08:01:55;14.23;;;9.50;;
52590;SDS011;38483;42.620;25.394;2022-12-18T08:04:22;13.13;;;8.67;;
52590;SDS011;38483;42.620;25.394;2022-12-18T08:06:49;6.27;;;4.60;;
52590;SDS011;38483;42.620;25.394;2022-12-18T08:09:17;10.80;;;7.30;;
52590;SDS011;38483;42.620;25.394;2022-12-18T08:11:44;9.70;;;6.70;;
52590;SDS011;38483;42.620;25.394;2022-12-18T08:14:11;7.03;;;5.90;;
52590;SDS011;38483;42.620;25.394;2022-12-18T08:16:38;6.53;;;5.37;;
52590;SDS011;38483;42.620;25.394;2022-12-18T08:19:06;7.33;;;5.23;;
52590;SDS011;38483;42.620;25.394;2022-12-18T08:21:33;7.77;;;5.47;;
52590;SDS011;38483;42.620;25.394;2022-12-18T08:24:01;6.93;;;5.20;;
52590;SDS011;38483;42.620;25.394;2022-12-18T08:26:28;7.47;;;5.10;;
52590;SDS011;38483;42.620;25.394;2022-12-18T08:28:57;6.63;;;5.73;;
52590;SDS011;38483;42.620;25.394;2022-12-18T08:31:26;8.80;;;6.50;;
52590;SDS011;38483;42.620;25.394;2022-12-18T08:33:54;8.60;;;5.47;;
52590;SDS011;38483;42.620;25.394;2022-12-18T08:36:22;10.77;;;7.30;;
52590;SDS011;38483;42.620;25.394;2022-12-18T08:38:51;8.90;;;6.67;;
52590;SDS011;38483;42.620;25.394;2022-12-18T08:41:19;6.00;;;4.70;;
52590;SDS011;38483;42.620;25.394;2022-12-18T08:43:46;7.43;;;5.10;;
52590;SDS011;38483;42.620;25.394;2022-12-18T08:46:39;8.33;;;6.83;;
52590;SDS011;38483;42.620;25.394;2022-12-18T08:49:08;14.03;;;9.37;;
52590;SDS011;38483;42.620;25.394;2022-12-18T08:51:36;12.83;;;8.70;;
52590;SDS011;38483;42.620;25.394;2022-12-18T08:54:04;16.23;;;10.03;;
52590;SDS011;38483;42.620;25.394;2022-12-18T08:56:32;16.23;;;9.80;;
52590;SDS011;38483;42.620;25.394;2022-12-18T08:58:59;11.97;;;7.40;;
52590;SDS011;38483;42.620;25.394;2022-12-18T09:01:26;7.50;;;5.80;;
52590;SDS011;38483;42.620;25.394;2022-12-18T09:03:54;13.90;;;9.60;;
52590;SDS011;38483;42.620;25.394;2022-12-18T09:06:21;12.83;;;8.77;;
52590;SDS011;38483;42.620;25.394;2022-12-18T09:08:49;10.23;;;7.97;;
52590;SDS011;38483;42.620;25.394;2022-12-18T09:11:24;11.07;;;7.60;;
52590;SDS011;38483;42.620;25.394;2022-12-18T09:14:25;14.10;;;7.60;;
52590;SDS011;38483;42.620;25.394;2022-12-18T09:16:52;11.93;;;8.30;;
52590;SDS011;38483;42.620;25.394;2022-12-18T09:19:19;10.10;;;7.10;;
52590;SDS011;38483;42.620;25.394;2022-12-18T09:21:46;13.30;;;9.40;;
52590;SDS011;38483;42.620;25.394;2022-12-18T09:24:14;13.47;;;9.17;;
52590;SDS011;38483;42.620;25.394;2022-12-18T09:26:41;12.07;;;7.93;;
52590;SDS011;38483;42.620;25.394;2022-12-18T09:29:13;15.90;;;8.07;;
52590;SDS011;38483;42.620;25.394;2022-12-18T09:31:44;14.63;;;9.10;;
52590;SDS011;38483;42.620;25.394;2022-12-18T09:34:11;12.30;;;7.63;;
52590;SDS011;38483;42.620;25.394;2022-12-18T09:36:38;12.33;;;7.87;;
52590;SDS011;38483;42.620;25.394;2022-12-18T09:39:05;16.70;;;8.87;;
52590;SDS011;38483;42.620;25.394;2022-12-18T09:44:29;15.43;;;7.90;;
52590;SDS011;38483;42.620;25.394;2022-12-18T09:49:44;19.30;;;8.83;;
52590;SDS011;38483;42.620;25.394;2022-12-18T09:52:17;12.03;;;6.90;;
52590;SDS011;38483;42.620;25.394;2022-12-18T09:54:57;9.83;;;6.77;;
52590;SDS011;38483;42.620;25.394;2022-12-18T09:57:32;16.10;;;7.07;;
52590;SDS011;38483;42.620;25.394;2022-12-18T10:00:19;14.50;;;7.40;;
52590;SDS011;38483;42.620;25.394;2022-12-18T10:02:51;10.73;;;5.93;;
52590;SDS011;38483;42.620;25.394;2022-12-18T10:14:03;9.67;;;6.13;;
52590;SDS011;38483;42.620;25.394;2022-12-18T10:27:26;36.03;;;26.43;;
52590;SDS011;38483;42.620;25.394;2022-12-18T10:29:54;114.70;;;78.47;;
52590;SDS011;38483;42.620;25.394;2022-12-18T10:32:25;868.77;;;579.37;;
52590;SDS011;38483;42.620;25.394;2022-12-18T10:34:55;1025.27;;;641.97;;
52590;SDS011;38483;42.620;25.394;2022-12-18T10:37:27;1731.83;;;902.03;;
52590;SDS011;38483;42.620;25.394;2022-12-18T10:43:03;1168.47;;;729.60;;
52590;SDS011;38483;42.620;25.394;2022-12-18T10:45:38;702.87;;;461.23;;
52590;SDS011;38483;42.620;25.394;2022-12-18T10:48:17;992.37;;;636.97;;
52590;SDS011;38483;42.620;25.394;2022-12-18T10:50:47;253.00;;;129.37;;
52590;SDS011;38483;42.620;25.394;2022-12-18T10:53:36;704.50;;;421.33;;
52590;SDS011;38483;42.620;25.394;2022-12-18T10:56:04;1159.03;;;711.90;;
52590;SDS011;38483;42.620;25.394;2022-12-18T11:01:06;14.87;;;8.63;;
52590;SDS011;38483;42.620;25.394;2022-12-18T11:03:35;14.10;;;6.10;;
52590;SDS011;38483;42.620;25.394;2022-12-18T11:06:09;8.07;;;5.90;;
52590;SDS011;38483;42.620;25.394;2022-12-18T11:08:43;9.10;;;6.00;;
52590;SDS011;38483;42.620;25.394;2022-12-18T11:11:24;9.37;;;6.37;;
52590;SDS011;38483;42.620;25.394;2022-12-18T11:14:41;10.87;;;6.07;;
52590;SDS011;38483;42.620;25.394;2022-12-18T11:16:48;11.67;;;7.00;;
52590;SDS011;38483;42.620;25.394;2022-12-18T11:19:37;11.13;;;7.57;;
52590;SDS011;38483;42.620;25.394;2022-12-18T11:22:20;10.13;;;6.63;;
52590;SDS011;38483;42.620;25.394;2022-12-18T11:24:59;10.07;;;6.73;;
52590;SDS011;38483;42.620;25.394;2022-12-18T11:28:24;10.43;;;6.47;;
52590;SDS011;38483;42.620;25.394;2022-12-18T11:31:25;12.53;;;6.90;;
52590;SDS011;38483;42.620;25.394;2022-12-18T11:34:14;9.37;;;5.67;;
52590;SDS011;38483;42.620;25.394;2022-12-18T11:36:57;13.77;;;7.77;;
52590;SDS011;38483;42.620;25.394;2022-12-18T11:47:35;20.47;;;9.80;;
52590;SDS011;38483;42.620;25.394;2022-12-18T11:50:10;14.27;;;9.57;;
52590;SDS011;38483;42.620;25.394;2022-12-18T11:52:41;11.50;;;8.50;;
52590;SDS011;38483;42.620;25.394;2022-12-18T11:55:13;11.70;;;7.10;;
52590;SDS011;38483;42.620;25.394;2022-12-18T12:00:42;11.93;;;8.60;;
52590;SDS011;38483;42.620;25.394;2022-12-18T12:09:11;18.33;;;12.60;;
52590;SDS011;38483;42.620;25.394;2022-12-18T12:15:06;20.73;;;14.03;;
52590;SDS011;38483;42.620;25.394;2022-12-18T12:18:10;26.60;;;16.27;;
52590;SDS011;38483;42.620;25.394;2022-12-18T12:21:09;27.00;;;16.30;;
52590;SDS011;38483;42.620;25.394;2022-12-18T12:32:22;18.30;;;12.67;;
52590;SDS011;38483;42.620;25.394;2022-12-18T12:38:17;14.93;;;10.60;;
52590;SDS011;38483;42.620;25.394;2022-12-18T12:40:51;16.30;;;11.13;;
52590;SDS011;38483;42.620;25.394;2022-12-18T12:43:42;13.73;;;9.77;;
52590;SDS011;38483;42.620;25.394;2022-12-18T12:46:34;14.23;;;8.63;;
52590;SDS011;38483;42.620;25.394;2022-12-18T12:49:09;14.90;;;9.90;;
52590;SDS011;38483;42.620;25.394;2022-12-18T12:51:43;15.67;;;9.20;;
52590;SDS011;38483;42.620;25.394;2022-12-18T12:54:19;14.67;;;9.17;;
52590;SDS011;38483;42.620;25.394;2022-12-18T12:56:51;16.57;;;10.07;;
52590;SDS011;38483;42.620;25.394;2022-12-18T12:59:27;18.07;;;12.23;;
52590;SDS011;38483;42.620;25.394;2022-12-18T13:13:06;25.67;;;15.97;;
52590;SDS011;38483;42.620;25.394;2022-12-18T13:20:36;13.67;;;9.43;;
52590;SDS011;38483;42.620;25.394;2022-12-18T13:23:26;16.10;;;9.60;;
52590;SDS011;38483;42.620;25.394;2022-12-18T13:25:54;14.37;;;10.20;;
52590;SDS011;38483;42.620;25.394;2022-12-18T13:31:12;16.17;;;10.73;;
52590;SDS011;38483;42.620;25.394;2022-12-18T13:34:12;15.40;;;10.30;;
52590;SDS011;38483;42.620;25.394;2022-12-18T13:36:53;19.23;;;11.67;;
52590;SDS011;38483;42.620;25.394;2022-12-18T13:39:23;15.73;;;10.57;;
52590;SDS011;38483;42.620;25.394;2022-12-18T13:44:33;21.97;;;12.50;;
52590;SDS011;38483;42.620;25.394;2022-12-18T13:47:26;13.23;;;8.73;;
52590;SDS011;38483;42.620;25.394;2022-12-18T13:49:58;19.07;;;11.17;;
52590;SDS011;38483;42.620;25.394;2022-12-18T13:52:26;17.60;;;11.83;;
52590;SDS011;38483;42.620;25.394;2022-12-18T13:54:56;16.23;;;10.87;;
52590;SDS011;38483;42.620;25.394;2022-12-18T13:59:57;15.90;;;9.97;;
52590;SDS011;38483;42.620;25.394;2022-12-18T14:02:26;13.57;;;9.37;;
52590;SDS011;38483;42.620;25.394;2022-12-18T14:04:55;17.97;;;12.60;;
52590;SDS011;38483;42.620;25.394;2022-12-18T14:07:28;17.17;;;11.30;;
52590;SDS011;38483;42.620;25.394;2022-12-18T14:10:11;20.83;;;11.27;;
52590;SDS011;38483;42.620;25.394;2022-12-18T14:13:03;18.93;;;13.23;;
52590;SDS011;38483;42.620;25.394;2022-12-18T14:15:38;23.23;;;15.97;;
52590;SDS011;38483;42.620;25.394;2022-12-18T14:20:52;27.23;;;19.27;;
52590;SDS011;38483;42.620;25.394;2022-12-18T14:23:36;28.97;;;19.87;;
52590;SDS011;38483;42.620;25.394;2022-12-18T14:29:17;35.57;;;22.37;;
52590;SDS011;38483;42.620;25.394;2022-12-18T14:34:51;36.20;;;22.20;;
52590;SDS011;38483;42.620;25.394;2022-12-18T14:37:24;27.40;;;17.43;;
52590;SDS011;38483;42.620;25.394;2022-12-18T14:40:02;24.37;;;15.20;;
52590;SDS011;38483;42.620;25.394;2022-12-18T14:42:36;18.40;;;12.90;;
52590;SDS011;38483;42.620;25.394;2022-12-18T14:48:07;15.83;;;11.20;;
52590;SDS011;38483;42.620;25.394;2022-12-18T14:50:38;15.03;;;10.60;;
52590;SDS011;38483;42.620;25.394;2022-12-18T14:53:04;17.83;;;11.03;;
52590;SDS011;38483;42.620;25.394;2022-12-18T14:55:33;23.47;;;16.53;;
52590;SDS011;38483;42.620;25.394;2022-12-18T14:58:00;28.73;;;15.70;;
52590;SDS011;38483;42.620;25.394;2022-12-18T15:00:28;22.43;;;14.73;;
52590;SDS011;38483;42.620;25.394;2022-12-18T15:02:55;20.53;;;14.90;;
52590;SDS011;38483;42.620;25.394;2022-12-18T15:05:26;18.07;;;12.83;;
52590;SDS011;38483;42.620;25.394;2022-12-18T15:07:56;20.90;;;12.07;;
52590;SDS011;38483;42.620;25.394;2022-12-18T15:10:34;17.93;;;9.60;;
52590;SDS011;38483;42.620;25.394;2022-12-18T15:15:44;20.30;;;13.37;;
52590;SDS011;38483;42.620;25.394;2022-12-18T15:18:15;24.10;;;15.83;;
52590;SDS011;38483;42.620;25.394;2022-12-18T15:23:25;17.40;;;11.50;;
52590;SDS011;38483;42.620;25.394;2022-12-18T15:25:59;17.23;;;10.97;;
52590;SDS011;38483;42.620;25.394;2022-12-18T15:28:31;17.93;;;12.17;;
52590;SDS011;38483;42.620;25.394;2022-12-18T15:34:29;11.90;;;9.00;;
52590;SDS011;38483;42.620;25.394;2022-12-18T15:36:44;12.47;;;8.43;;
52590;SDS011;38483;42.620;25.394;2022-12-18T15:39:12;12.30;;;8.57;;
52590;SDS011;38483;42.620;25.394;2022-12-18T15:41:39;11.47;;;8.20;;
52590;SDS011;38483;42.620;25.394;2022-12-18T15:44:22;12.93;;;8.20;;
52590;SDS011;38483;42.620;25.394;2022-12-18T15:46:51;14.67;;;9.60;;
52590;SDS011;38483;42.620;25.394;2022-12-18T15:49:17;14.50;;;9.67;;
52590;SDS011;38483;42.620;25.394;2022-12-18T15:51:44;13.87;;;10.20;;
52590;SDS011;38483;42.620;25.394;2022-12-18T15:54:15;12.33;;;8.43;;
52590;SDS011;38483;42.620;25.394;2022-12-18T15:56:43;11.83;;;8.67;;
52590;SDS011;38483;42.620;25.394;2022-12-18T15:59:28;12.47;;;8.93;;
52590;SDS011;38483;42.620;25.394;2022-12-18T16:01:56;13.77;;;8.53;;
52590;SDS011;38483;42.620;25.394;2022-12-18T16:04:23;14.50;;;9.63;;
52590;SDS011;38483;42.620;25.394;2022-12-18T16:06:51;13.57;;;9.80;;
52590;SDS011;38483;42.620;25.394;2022-12-18T16:09:38;18.03;;;12.17;;
52590;SDS011;38483;42.620;25.394;2022-12-18T16:12:06;16.77;;;11.90;;
52590;SDS011;38483;42.620;25.394;2022-12-18T16:14:36;16.17;;;11.03;;
52590;SDS011;38483;42.620;25.394;2022-12-18T16:17:05;15.50;;;9.30;;
52590;SDS011;38483;42.620;25.394;2022-12-18T16:19:36;15.23;;;8.70;;
52590;SDS011;38483;42.620;25.394;2022-12-18T16:22:03;16.07;;;9.60;;
52590;SDS011;38483;42.620;25.394;2022-12-18T16:24:33;22.27;;;11.90;;
52590;SDS011;38483;42.620;25.394;2022-12-18T16:27:02;17.33;;;10.77;;
52590;SDS011;38483;42.620;25.394;2022-12-18T16:29:29;15.77;;;10.73;;
52590;SDS011;38483;42.620;25.394;2022-12-18T16:31:57;15.57;;;9.90;;
52590;SDS011;38483;42.620;25.394;2022-12-18T16:36:58;17.13;;;11.23;;
52590;SDS011;38483;42.620;25.394;2022-12-18T16:39:35;14.50;;;10.07;;
52590;SDS011;38483;42.620;25.394;2022-12-18T16:42:11;14.10;;;10.23;;
52590;SDS011;38483;42.620;25.394;2022-12-18T16:44:43;14.43;;;8.43;;
52590;SDS011;38483;42.620;25.394;2022-12-18T16:47:11;13.77;;;8.53;;
52590;SDS011;38483;42.620;25.394;2022-12-18T16:49:41;13.90;;;8.73;;